sensor_id;sensor_type;location;lat;lon;timestamp;P1;durP1;ratioP1;P2;durP2;ratioP2
36383;SDS011;22418;51.210;6.976;2023-05-14T00:01:05;19.23;;;10.30;;
36383;SDS011;22418;51.210;6.976;2023-05-14T00:06:09;19.08;;;10.80;;
36383;SDS011;22418;51.210;6.976;2023-05-14T00:08:40;17.63;;;10.53;;
36383;SDS011;22418;51.210;6.976;2023-05-14T00:11:10;15.90;;;10.73;;
36383;SDS011;22418;51.210;6.976;2023-05-14T00:13:41;18.23;;;11.10;;
36383;SDS011;22418;51.210;6.976;2023-05-14T00:16:12;21.37;;;11.10;;
36383;SDS011;22418;51.210;6.976;2023-05-14T00:18:42;17.70;;;11.20;;
36383;SDS011;22418;51.210;6.976;2023-05-14T00:21:13;20.23;;;10.70;;
36383;SDS011;22418;51.210;6.976;2023-05-14T00:23:43;18.63;;;10.30;;
36383;SDS011;22418;51.210;6.976;2023-05-14T00:26:14;18.80;;;10.93;;
36383;SDS011;22418;51.210;6.976;2023-05-14T00:28:45;15.57;;;9.87;;
36383;SDS011;22418;51.210;6.976;2023-05-14T00:31:15;21.40;;;10.77;;
36383;SDS011;22418;51.210;6.976;2023-05-14T00:33:46;15.77;;;10.47;;
36383;SDS011;22418;51.210;6.976;2023-05-14T00:36:16;15.77;;;10.07;;
36383;SDS011;22418;51.210;6.976;2023-05-14T00:38:47;18.93;;;11.40;;
36383;SDS011;22418;51.210;6.976;2023-05-14T00:41:18;18.90;;;11.27;;
36383;SDS011;22418;51.210;6.976;2023-05-14T00:43:48;19.10;;;10.60;;
36383;SDS011;22418;51.210;6.976;2023-05-14T00:46:19;16.77;;;10.37;;
36383;SDS011;22418;51.210;6.976;2023-05-14T00:48:50;19.85;;;11.68;;
36383;SDS011;22418;51.210;6.976;2023-05-14T00:51:21;21.17;;;11.07;;
36383;SDS011;22418;51.210;6.976;2023-05-14T00:53:51;23.90;;;11.30;;
36383;SDS011;22418;51.210;6.976;2023-05-14T00:56:22;20.13;;;10.27;;
36383;SDS011;22418;51.210;6.976;2023-05-14T00:58:54;21.95;;;11.20;;
36383;SDS011;22418;51.210;6.976;2023-05-14T01:01:24;21.43;;;11.43;;
36383;SDS011;22418;51.210;6.976;2023-05-14T01:03:57;18.80;;;11.18;;
36383;SDS011;22418;51.210;6.976;2023-05-14T01:06:44;20.10;;;11.13;;
36383;SDS011;22418;51.210;6.976;2023-05-14T01:09:39;19.27;;;11.30;;
36383;SDS011;22418;51.210;6.976;2023-05-14T01:15:11;20.15;;;10.98;;
36383;SDS011;22418;51.210;6.976;2023-05-14T01:17:58;21.38;;;10.20;;
36383;SDS011;22418;51.210;6.976;2023-05-14T01:20:32;14.52;;;10.88;;
36383;SDS011;22418;51.210;6.976;2023-05-14T01:23:03;19.05;;;11.15;;
36383;SDS011;22418;51.210;6.976;2023-05-14T01:25:34;23.50;;;11.20;;
36383;SDS011;22418;51.210;6.976;2023-05-14T01:28:11;18.83;;;11.07;;
36383;SDS011;22418;51.210;6.976;2023-05-14T01:30:54;19.08;;;9.98;;
36383;SDS011;22418;51.210;6.976;2023-05-14T01:33:29;18.75;;;10.50;;
36383;SDS011;22418;51.210;6.976;2023-05-14T01:36:02;16.67;;;10.27;;
36383;SDS011;22418;51.210;6.976;2023-05-14T01:41:05;17.35;;;10.77;;
36383;SDS011;22418;51.210;6.976;2023-05-14T01:43:36;18.70;;;9.57;;
36383;SDS011;22418;51.210;6.976;2023-05-14T01:46:07;14.93;;;10.85;;
36383;SDS011;22418;51.210;6.976;2023-05-14T01:48:37;18.67;;;11.20;;
36383;SDS011;22418;51.210;6.976;2023-05-14T01:51:10;16.13;;;10.35;;
36383;SDS011;22418;51.210;6.976;2023-05-14T01:53:43;20.27;;;10.65;;
36383;SDS011;22418;51.210;6.976;2023-05-14T01:56:16;19.67;;;10.90;;
36383;SDS011;22418;51.210;6.976;2023-05-14T01:58:47;18.25;;;10.40;;
36383;SDS011;22418;51.210;6.976;2023-05-14T02:01:18;18.60;;;10.40;;
36383;SDS011;22418;51.210;6.976;2023-05-14T02:03:48;14.43;;;10.53;;
36383;SDS011;22418;51.210;6.976;2023-05-14T02:06:19;19.37;;;10.57;;
36383;SDS011;22418;51.210;6.976;2023-05-14T02:08:49;16.47;;;9.90;;
36383;SDS011;22418;51.210;6.976;2023-05-14T02:11:20;18.97;;;10.67;;
36383;SDS011;22418;51.210;6.976;2023-05-14T02:13:51;21.10;;;11.70;;
36383;SDS011;22418;51.210;6.976;2023-05-14T02:16:21;19.27;;;10.50;;
36383;SDS011;22418;51.210;6.976;2023-05-14T02:18:52;13.73;;;9.33;;
36383;SDS011;22418;51.210;6.976;2023-05-14T02:21:22;15.87;;;10.70;;
36383;SDS011;22418;51.210;6.976;2023-05-14T02:23:53;15.43;;;9.63;;
36383;SDS011;22418;51.210;6.976;2023-05-14T02:26:25;13.18;;;9.18;;
36383;SDS011;22418;51.210;6.976;2023-05-14T02:28:55;20.90;;;9.80;;
36383;SDS011;22418;51.210;6.976;2023-05-14T02:31:26;14.57;;;9.50;;
36383;SDS011;22418;51.210;6.976;2023-05-14T02:33:56;17.40;;;9.40;;
36383;SDS011;22418;51.210;6.976;2023-05-14T02:36:27;17.97;;;11.37;;
36383;SDS011;22418;51.210;6.976;2023-05-14T02:38:58;16.63;;;10.40;;
36383;SDS011;22418;51.210;6.976;2023-05-14T02:41:28;14.65;;;9.73;;
36383;SDS011;22418;51.210;6.976;2023-05-14T02:43:59;17.83;;;9.77;;
36383;SDS011;22418;51.210;6.976;2023-05-14T02:46:30;18.70;;;10.43;;
36383;SDS011;22418;51.210;6.976;2023-05-14T02:49:01;14.23;;;9.70;;
36383;SDS011;22418;51.210;6.976;2023-05-14T02:51:32;18.67;;;9.60;;
36383;SDS011;22418;51.210;6.976;2023-05-14T02:54:02;19.17;;;10.57;;
36383;SDS011;22418;51.210;6.976;2023-05-14T02:56:33;24.77;;;9.93;;
36383;SDS011;22418;51.210;6.976;2023-05-14T02:59:03;14.50;;;10.50;;
36383;SDS011;22418;51.210;6.976;2023-05-14T03:01:34;19.00;;;9.93;;
36383;SDS011;22418;51.210;6.976;2023-05-14T03:04:04;12.57;;;9.43;;
36383;SDS011;22418;51.210;6.976;2023-05-14T03:06:35;15.10;;;8.77;;
36383;SDS011;22418;51.210;6.976;2023-05-14T03:09:06;17.37;;;9.97;;
36383;SDS011;22418;51.210;6.976;2023-05-14T03:11:36;25.30;;;10.33;;
36383;SDS011;22418;51.210;6.976;2023-05-14T03:14:07;19.90;;;10.43;;
36383;SDS011;22418;51.210;6.976;2023-05-14T03:16:37;17.87;;;9.23;;
36383;SDS011;22418;51.210;6.976;2023-05-14T03:19:11;15.82;;;9.15;;
36383;SDS011;22418;51.210;6.976;2023-05-14T03:21:41;16.17;;;8.77;;
36383;SDS011;22418;51.210;6.976;2023-05-14T03:24:12;20.83;;;9.80;;
36383;SDS011;22418;51.210;6.976;2023-05-14T03:26:42;17.63;;;10.37;;
36383;SDS011;22418;51.210;6.976;2023-05-14T03:29:13;16.13;;;10.47;;
36383;SDS011;22418;51.210;6.976;2023-05-14T03:31:46;14.57;;;9.70;;
36383;SDS011;22418;51.210;6.976;2023-05-14T03:34:18;15.90;;;9.63;;
36383;SDS011;22418;51.210;6.976;2023-05-14T03:36:49;17.20;;;9.65;;
36383;SDS011;22418;51.210;6.976;2023-05-14T03:39:20;21.50;;;9.90;;
36383;SDS011;22418;51.210;6.976;2023-05-14T03:41:50;14.50;;;10.40;;
36383;SDS011;22418;51.210;6.976;2023-05-14T03:44:21;12.50;;;8.97;;
36383;SDS011;22418;51.210;6.976;2023-05-14T03:46:51;12.40;;;9.57;;
36383;SDS011;22418;51.210;6.976;2023-05-14T03:49:22;16.93;;;9.87;;
36383;SDS011;22418;51.210;6.976;2023-05-14T03:51:54;17.95;;;10.10;;
36383;SDS011;22418;51.210;6.976;2023-05-14T03:54:25;15.63;;;10.27;;
36383;SDS011;22418;51.210;6.976;2023-05-14T03:56:55;14.88;;;9.75;;
36383;SDS011;22418;51.210;6.976;2023-05-14T03:59:26;15.37;;;9.17;;
36383;SDS011;22418;51.210;6.976;2023-05-14T04:01:57;15.47;;;9.90;;
36383;SDS011;22418;51.210;6.976;2023-05-14T04:04:27;16.13;;;10.50;;
36383;SDS011;22418;51.210;6.976;2023-05-14T04:06:58;18.70;;;9.83;;
36383;SDS011;22418;51.210;6.976;2023-05-14T04:09:28;19.63;;;9.83;;
36383;SDS011;22418;51.210;6.976;2023-05-14T04:11:59;13.80;;;9.20;;
36383;SDS011;22418;51.210;6.976;2023-05-14T04:14:29;24.67;;;9.93;;
36383;SDS011;22418;51.210;6.976;2023-05-14T04:17:00;19.33;;;9.83;;
36383;SDS011;22418;51.210;6.976;2023-05-14T04:19:30;17.27;;;9.03;;
36383;SDS011;22418;51.210;6.976;2023-05-14T04:22:01;19.33;;;9.30;;
36383;SDS011;22418;51.210;6.976;2023-05-14T04:24:32;18.63;;;9.07;;
36383;SDS011;22418;51.210;6.976;2023-05-14T04:27:02;15.43;;;9.10;;
36383;SDS011;22418;51.210;6.976;2023-05-14T04:29:33;26.48;;;9.50;;
36383;SDS011;22418;51.210;6.976;2023-05-14T04:32:04;14.37;;;8.77;;
36383;SDS011;22418;51.210;6.976;2023-05-14T04:37:06;16.48;;;8.98;;
36383;SDS011;22418;51.210;6.976;2023-05-14T04:39:37;13.18;;;7.60;;
36383;SDS011;22418;51.210;6.976;2023-05-14T04:42:08;27.95;;;8.48;;
36383;SDS011;22418;51.210;6.976;2023-05-14T04:44:38;15.45;;;7.65;;
36383;SDS011;22418;51.210;6.976;2023-05-14T04:47:09;14.03;;;8.50;;
36383;SDS011;22418;51.210;6.976;2023-05-14T04:49:40;15.27;;;8.27;;
36383;SDS011;22418;51.210;6.976;2023-05-14T04:52:11;16.42;;;8.40;;
36383;SDS011;22418;51.210;6.976;2023-05-14T04:54:42;11.33;;;7.97;;
36383;SDS011;22418;51.210;6.976;2023-05-14T04:57:12;11.73;;;7.60;;
36383;SDS011;22418;51.210;6.976;2023-05-14T04:59:43;14.33;;;6.73;;
36383;SDS011;22418;51.210;6.976;2023-05-14T05:02:13;9.57;;;6.47;;
36383;SDS011;22418;51.210;6.976;2023-05-14T05:04:44;10.47;;;6.67;;
36383;SDS011;22418;51.210;6.976;2023-05-14T05:07:16;12.60;;;6.63;;
36383;SDS011;22418;51.210;6.976;2023-05-14T05:09:46;9.10;;;6.67;;
36383;SDS011;22418;51.210;6.976;2023-05-14T05:12:17;11.83;;;6.60;;
36383;SDS011;22418;51.210;6.976;2023-05-14T05:14:47;13.40;;;6.43;;
36383;SDS011;22418;51.210;6.976;2023-05-14T05:17:18;11.47;;;6.97;;
36383;SDS011;22418;51.210;6.976;2023-05-14T05:19:48;12.93;;;6.23;;
36383;SDS011;22418;51.210;6.976;2023-05-14T05:22:19;9.43;;;5.73;;
36383;SDS011;22418;51.210;6.976;2023-05-14T05:24:50;7.53;;;5.95;;
36383;SDS011;22418;51.210;6.976;2023-05-14T05:27:20;10.30;;;6.10;;
36383;SDS011;22418;51.210;6.976;2023-05-14T05:29:51;12.07;;;5.38;;
36383;SDS011;22418;51.210;6.976;2023-05-14T05:32:22;7.87;;;5.60;;
36383;SDS011;22418;51.210;6.976;2023-05-14T05:34:52;12.17;;;5.80;;
36383;SDS011;22418;51.210;6.976;2023-05-14T05:37:23;12.10;;;5.80;;
36383;SDS011;22418;51.210;6.976;2023-05-14T05:39:53;8.07;;;5.87;;
36383;SDS011;22418;51.210;6.976;2023-05-14T05:42:24;12.93;;;6.33;;
36383;SDS011;22418;51.210;6.976;2023-05-14T05:44:55;9.57;;;5.63;;
36383;SDS011;22418;51.210;6.976;2023-05-14T05:47:25;7.57;;;5.83;;
36383;SDS011;22418;51.210;6.976;2023-05-14T05:49:56;7.03;;;5.90;;
36383;SDS011;22418;51.210;6.976;2023-05-14T05:52:26;7.83;;;5.73;;
36383;SDS011;22418;51.210;6.976;2023-05-14T05:54:57;10.37;;;6.07;;
36383;SDS011;22418;51.210;6.976;2023-05-14T05:57:28;11.37;;;6.20;;
36383;SDS011;22418;51.210;6.976;2023-05-14T05:59:58;16.10;;;6.40;;
36383;SDS011;22418;51.210;6.976;2023-05-14T06:02:29;10.87;;;5.10;;
36383;SDS011;22418;51.210;6.976;2023-05-14T06:04:59;10.47;;;5.83;;
36383;SDS011;22418;51.210;6.976;2023-05-14T06:07:30;9.27;;;5.50;;
36383;SDS011;22418;51.210;6.976;2023-05-14T06:10:01;11.87;;;5.67;;
36383;SDS011;22418;51.210;6.976;2023-05-14T06:12:31;6.53;;;5.07;;
36383;SDS011;22418;51.210;6.976;2023-05-14T06:15:02;9.07;;;5.33;;
36383;SDS011;22418;51.210;6.976;2023-05-14T06:17:33;10.30;;;5.40;;
36383;SDS011;22418;51.210;6.976;2023-05-14T06:20:03;11.70;;;5.70;;
36383;SDS011;22418;51.210;6.976;2023-05-14T06:22:36;11.50;;;7.53;;
36383;SDS011;22418;51.210;6.976;2023-05-14T06:25:07;10.13;;;7.07;;
36383;SDS011;22418;51.210;6.976;2023-05-14T06:27:38;11.95;;;7.22;;
36383;SDS011;22418;51.210;6.976;2023-05-14T06:30:09;8.65;;;5.93;;
36383;SDS011;22418;51.210;6.976;2023-05-14T06:32:40;10.77;;;6.63;;
36383;SDS011;22418;51.210;6.976;2023-05-14T06:37:41;11.50;;;6.93;;
36383;SDS011;22418;51.210;6.976;2023-05-14T06:40:12;9.10;;;5.95;;
36383;SDS011;22418;51.210;6.976;2023-05-14T06:42:44;10.25;;;6.55;;
36383;SDS011;22418;51.210;6.976;2023-05-14T06:45:15;9.35;;;6.78;;
36383;SDS011;22418;51.210;6.976;2023-05-14T06:47:45;8.15;;;6.63;;
36383;SDS011;22418;51.210;6.976;2023-05-14T06:50:16;9.25;;;7.07;;
36383;SDS011;22418;51.210;6.976;2023-05-14T06:52:46;10.13;;;7.63;;
36383;SDS011;22418;51.210;6.976;2023-05-14T06:55:17;10.27;;;6.68;;
36383;SDS011;22418;51.210;6.976;2023-05-14T06:57:48;8.05;;;7.25;;
36383;SDS011;22418;51.210;6.976;2023-05-14T07:00:19;7.72;;;6.47;;
36383;SDS011;22418;51.210;6.976;2023-05-14T07:02:50;11.25;;;6.10;;
36383;SDS011;22418;51.210;6.976;2023-05-14T07:05:21;7.10;;;6.38;;
36383;SDS011;22418;51.210;6.976;2023-05-14T07:07:51;7.85;;;6.25;;
36383;SDS011;22418;51.210;6.976;2023-05-14T07:10:22;12.30;;;6.63;;
36383;SDS011;22418;51.210;6.976;2023-05-14T07:12:53;9.10;;;8.00;;
36383;SDS011;22418;51.210;6.976;2023-05-14T07:15:24;9.02;;;6.35;;
36383;SDS011;22418;51.210;6.976;2023-05-14T07:17:55;8.50;;;6.20;;
36383;SDS011;22418;51.210;6.976;2023-05-14T07:20:25;11.90;;;6.65;;
36383;SDS011;22418;51.210;6.976;2023-05-14T07:22:56;9.50;;;6.30;;
36383;SDS011;22418;51.210;6.976;2023-05-14T07:25:26;10.63;;;6.20;;
36383;SDS011;22418;51.210;6.976;2023-05-14T07:27:57;10.13;;;7.25;;
36383;SDS011;22418;51.210;6.976;2023-05-14T07:30:27;8.13;;;6.30;;
36383;SDS011;22418;51.210;6.976;2023-05-14T07:35:28;11.87;;;6.50;;
36383;SDS011;22418;51.210;6.976;2023-05-14T07:40:29;11.17;;;6.60;;
36383;SDS011;22418;51.210;6.976;2023-05-14T07:45:31;9.40;;;5.40;;
36383;SDS011;22418;51.210;6.976;2023-05-14T07:48:02;9.10;;;5.80;;
36383;SDS011;22418;51.210;6.976;2023-05-14T07:50:32;7.75;;;5.25;;
36383;SDS011;22418;51.210;6.976;2023-05-14T07:53:03;7.60;;;4.55;;
36383;SDS011;22418;51.210;6.976;2023-05-14T07:55:33;8.60;;;5.47;;
36383;SDS011;22418;51.210;6.976;2023-05-14T07:58:04;8.30;;;6.10;;
36383;SDS011;22418;51.210;6.976;2023-05-14T08:03:06;12.33;;;5.10;;
36383;SDS011;22418;51.210;6.976;2023-05-14T08:05:36;8.55;;;4.70;;
36383;SDS011;22418;51.210;6.976;2023-05-14T08:08:07;8.63;;;5.90;;
36383;SDS011;22418;51.210;6.976;2023-05-14T08:10:37;9.10;;;5.30;;
36383;SDS011;22418;51.210;6.976;2023-05-14T08:13:08;13.20;;;5.13;;
36383;SDS011;22418;51.210;6.976;2023-05-14T08:15:38;8.17;;;4.30;;
36383;SDS011;22418;51.210;6.976;2023-05-14T08:18:09;10.23;;;5.90;;
36383;SDS011;22418;51.210;6.976;2023-05-14T08:20:40;8.67;;;5.23;;
36383;SDS011;22418;51.210;6.976;2023-05-14T08:23:10;6.43;;;5.13;;
36383;SDS011;22418;51.210;6.976;2023-05-14T08:25:41;8.52;;;5.38;;
36383;SDS011;22418;51.210;6.976;2023-05-14T08:28:12;6.70;;;5.37;;
36383;SDS011;22418;51.210;6.976;2023-05-14T08:30:42;10.30;;;5.33;;
36383;SDS011;22418;51.210;6.976;2023-05-14T08:33:13;7.32;;;5.18;;
36383;SDS011;22418;51.210;6.976;2023-05-14T08:35:43;10.93;;;5.03;;
36383;SDS011;22418;51.210;6.976;2023-05-14T08:38:14;9.23;;;5.73;;
36383;SDS011;22418;51.210;6.976;2023-05-14T08:40:48;9.40;;;6.17;;
36383;SDS011;22418;51.210;6.976;2023-05-14T08:43:28;10.20;;;5.78;;
36383;SDS011;22418;51.210;6.976;2023-05-14T08:46:05;8.60;;;6.45;;
36383;SDS011;22418;51.210;6.976;2023-05-14T08:48:39;7.95;;;6.05;;
36383;SDS011;22418;51.210;6.976;2023-05-14T08:51:11;10.82;;;7.10;;
36383;SDS011;22418;51.210;6.976;2023-05-14T08:53:42;9.57;;;6.03;;
36383;SDS011;22418;51.210;6.976;2023-05-14T08:56:12;9.83;;;6.57;;
36383;SDS011;22418;51.210;6.976;2023-05-14T08:58:45;9.95;;;6.35;;
36383;SDS011;22418;51.210;6.976;2023-05-14T09:01:16;9.00;;;5.73;;
36383;SDS011;22418;51.210;6.976;2023-05-14T09:03:48;8.70;;;5.43;;
36383;SDS011;22418;51.210;6.976;2023-05-14T09:06:19;10.07;;;5.72;;
36383;SDS011;22418;51.210;6.976;2023-05-14T09:08:51;10.75;;;6.47;;
36383;SDS011;22418;51.210;6.976;2023-05-14T09:11:22;12.32;;;4.93;;
36383;SDS011;22418;51.210;6.976;2023-05-14T09:13:53;7.65;;;5.80;;
36383;SDS011;22418;51.210;6.976;2023-05-14T09:16:24;6.50;;;5.30;;
36383;SDS011;22418;51.210;6.976;2023-05-14T09:18:55;9.20;;;5.00;;
36383;SDS011;22418;51.210;6.976;2023-05-14T09:21:27;8.00;;;5.57;;
36383;SDS011;22418;51.210;6.976;2023-05-14T09:23:57;8.50;;;5.07;;
36383;SDS011;22418;51.210;6.976;2023-05-14T09:26:30;7.37;;;4.87;;
36383;SDS011;22418;51.210;6.976;2023-05-14T09:29:02;10.55;;;5.00;;
36383;SDS011;22418;51.210;6.976;2023-05-14T09:31:35;10.60;;;5.93;;
36383;SDS011;22418;51.210;6.976;2023-05-14T09:34:06;10.70;;;3.97;;
36383;SDS011;22418;51.210;6.976;2023-05-14T09:36:37;7.03;;;3.80;;
36383;SDS011;22418;51.210;6.976;2023-05-14T09:39:07;6.33;;;3.33;;
36383;SDS011;22418;51.210;6.976;2023-05-14T09:41:38;4.70;;;2.80;;
36383;SDS011;22418;51.210;6.976;2023-05-14T09:44:09;8.07;;;2.93;;
36383;SDS011;22418;51.210;6.976;2023-05-14T09:46:39;6.43;;;2.50;;
36383;SDS011;22418;51.210;6.976;2023-05-14T09:49:10;4.13;;;2.37;;
36383;SDS011;22418;51.210;6.976;2023-05-14T09:51:41;5.50;;;2.60;;
36383;SDS011;22418;51.210;6.976;2023-05-14T09:54:11;5.17;;;2.20;;
36383;SDS011;22418;51.210;6.976;2023-05-14T09:56:42;7.40;;;2.40;;
36383;SDS011;22418;51.210;6.976;2023-05-14T09:59:13;7.05;;;2.53;;
36383;SDS011;22418;51.210;6.976;2023-05-14T10:01:44;8.00;;;3.27;;
36383;SDS011;22418;51.210;6.976;2023-05-14T10:04:15;5.30;;;2.83;;
36383;SDS011;22418;51.210;6.976;2023-05-14T10:06:46;4.72;;;2.75;;
36383;SDS011;22418;51.210;6.976;2023-05-14T10:09:20;4.07;;;2.42;;
36383;SDS011;22418;51.210;6.976;2023-05-14T10:11:56;5.35;;;2.55;;
36383;SDS011;22418;51.210;6.976;2023-05-14T10:14:32;9.98;;;2.70;;
36383;SDS011;22418;51.210;6.976;2023-05-14T10:17:09;3.72;;;2.60;;
36383;SDS011;22418;51.210;6.976;2023-05-14T10:19:49;7.65;;;2.42;;
36383;SDS011;22418;51.210;6.976;2023-05-14T10:22:24;5.47;;;2.50;;
36383;SDS011;22418;51.210;6.976;2023-05-14T10:25:00;6.90;;;2.80;;
36383;SDS011;22418;51.210;6.976;2023-05-14T10:27:31;6.07;;;2.33;;
36383;SDS011;22418;51.210;6.976;2023-05-14T10:30:04;4.03;;;2.60;;
36383;SDS011;22418;51.210;6.976;2023-05-14T10:32:39;4.90;;;2.90;;
36383;SDS011;22418;51.210;6.976;2023-05-14T10:35:14;3.92;;;2.60;;
36383;SDS011;22418;51.210;6.976;2023-05-14T10:37:54;6.10;;;3.03;;
36383;SDS011;22418;51.210;6.976;2023-05-14T10:42:57;6.43;;;2.70;;
36383;SDS011;22418;51.210;6.976;2023-05-14T10:45:28;5.47;;;2.90;;
36383;SDS011;22418;51.210;6.976;2023-05-14T10:47:59;3.70;;;2.72;;
36383;SDS011;22418;51.210;6.976;2023-05-14T10:50:30;5.70;;;2.92;;
36383;SDS011;22418;51.210;6.976;2023-05-14T10:53:01;5.57;;;2.70;;
36383;SDS011;22418;51.210;6.976;2023-05-14T10:55:31;4.28;;;2.80;;
36383;SDS011;22418;51.210;6.976;2023-05-14T10:58:03;4.65;;;2.67;;
36383;SDS011;22418;51.210;6.976;2023-05-14T11:03:05;4.97;;;2.50;;
36383;SDS011;22418;51.210;6.976;2023-05-14T11:05:36;5.93;;;2.38;;
36383;SDS011;22418;51.210;6.976;2023-05-14T11:08:09;6.55;;;2.58;;
36383;SDS011;22418;51.210;6.976;2023-05-14T11:10:41;3.80;;;2.33;;
36383;SDS011;22418;51.210;6.976;2023-05-14T11:13:12;5.78;;;3.00;;
36383;SDS011;22418;51.210;6.976;2023-05-14T11:15:45;4.63;;;2.25;;
36383;SDS011;22418;51.210;6.976;2023-05-14T11:18:29;4.80;;;2.65;;
36383;SDS011;22418;51.210;6.976;2023-05-14T11:21:02;12.07;;;2.53;;
36383;SDS011;22418;51.210;6.976;2023-05-14T11:23:33;7.13;;;2.77;;
36383;SDS011;22418;51.210;6.976;2023-05-14T11:26:03;6.80;;;3.03;;
36383;SDS011;22418;51.210;6.976;2023-05-14T11:28:34;5.87;;;2.73;;
36383;SDS011;22418;51.210;6.976;2023-05-14T11:31:05;5.40;;;2.70;;
36383;SDS011;22418;51.210;6.976;2023-05-14T11:33:36;7.67;;;3.40;;
36383;SDS011;22418;51.210;6.976;2023-05-14T11:36:06;6.43;;;2.77;;
36383;SDS011;22418;51.210;6.976;2023-05-14T11:38:46;7.75;;;2.70;;
36383;SDS011;22418;51.210;6.976;2023-05-14T11:41:21;10.13;;;3.20;;
36383;SDS011;22418;51.210;6.976;2023-05-14T11:43:51;4.47;;;2.67;;
36383;SDS011;22418;51.210;6.976;2023-05-14T11:46:22;7.60;;;2.70;;
36383;SDS011;22418;51.210;6.976;2023-05-14T11:48:54;4.22;;;2.72;;
36383;SDS011;22418;51.210;6.976;2023-05-14T11:51:25;4.30;;;2.60;;
36383;SDS011;22418;51.210;6.976;2023-05-14T11:53:55;5.20;;;2.67;;
36383;SDS011;22418;51.210;6.976;2023-05-14T11:56:27;4.70;;;2.63;;
36383;SDS011;22418;51.210;6.976;2023-05-14T11:58:58;8.17;;;3.10;;
36383;SDS011;22418;51.210;6.976;2023-05-14T12:01:28;4.13;;;2.43;;
36383;SDS011;22418;51.210;6.976;2023-05-14T12:04:04;4.45;;;2.85;;
36383;SDS011;22418;51.210;6.976;2023-05-14T12:06:35;8.05;;;2.58;;
36383;SDS011;22418;51.210;6.976;2023-05-14T12:09:08;5.15;;;2.78;;
36383;SDS011;22418;51.210;6.976;2023-05-14T12:11:42;12.23;;;2.88;;
36383;SDS011;22418;51.210;6.976;2023-05-14T12:14:15;4.35;;;2.45;;
36383;SDS011;22418;51.210;6.976;2023-05-14T12:19:18;6.67;;;2.53;;
36383;SDS011;22418;51.210;6.976;2023-05-14T12:21:54;4.70;;;2.42;;
36383;SDS011;22418;51.210;6.976;2023-05-14T12:24:25;5.60;;;2.43;;
36383;SDS011;22418;51.210;6.976;2023-05-14T12:26:55;7.53;;;2.70;;
36383;SDS011;22418;51.210;6.976;2023-05-14T12:29:29;6.53;;;2.75;;
36383;SDS011;22418;51.210;6.976;2023-05-14T12:32:07;4.53;;;2.50;;
36383;SDS011;22418;51.210;6.976;2023-05-14T12:34:38;5.05;;;2.50;;
36383;SDS011;22418;51.210;6.976;2023-05-14T12:37:09;7.30;;;2.77;;
36383;SDS011;22418;51.210;6.976;2023-05-14T12:39:40;4.17;;;2.20;;
36383;SDS011;22418;51.210;6.976;2023-05-14T12:42:10;4.23;;;2.63;;
36383;SDS011;22418;51.210;6.976;2023-05-14T12:44:41;4.23;;;2.30;;
36383;SDS011;22418;51.210;6.976;2023-05-14T12:47:11;4.33;;;2.60;;
36383;SDS011;22418;51.210;6.976;2023-05-14T12:49:42;4.50;;;2.73;;
36383;SDS011;22418;51.210;6.976;2023-05-14T12:52:12;8.17;;;2.93;;
36383;SDS011;22418;51.210;6.976;2023-05-14T12:54:43;5.80;;;2.77;;
36383;SDS011;22418;51.210;6.976;2023-05-14T12:57:14;3.43;;;2.73;;
36383;SDS011;22418;51.210;6.976;2023-05-14T12:59:44;8.33;;;3.40;;
36383;SDS011;22418;51.210;6.976;2023-05-14T13:02:15;6.27;;;2.70;;
36383;SDS011;22418;51.210;6.976;2023-05-14T13:07:17;7.80;;;2.90;;
36383;SDS011;22418;51.210;6.976;2023-05-14T13:09:47;5.70;;;2.70;;
36383;SDS011;22418;51.210;6.976;2023-05-14T13:12:21;5.85;;;2.50;;
36383;SDS011;22418;51.210;6.976;2023-05-14T13:14:52;5.43;;;2.92;;
36383;SDS011;22418;51.210;6.976;2023-05-14T13:17:22;4.43;;;2.50;;
36383;SDS011;22418;51.210;6.976;2023-05-14T13:19:53;4.37;;;2.40;;
36383;SDS011;22418;51.210;6.976;2023-05-14T13:22:23;8.77;;;3.00;;
36383;SDS011;22418;51.210;6.976;2023-05-14T13:24:54;5.80;;;2.80;;
36383;SDS011;22418;51.210;6.976;2023-05-14T13:27:25;4.07;;;2.53;;
36383;SDS011;22418;51.210;6.976;2023-05-14T13:29:55;4.80;;;2.40;;
36383;SDS011;22418;51.210;6.976;2023-05-14T13:32:26;8.23;;;2.70;;
36383;SDS011;22418;51.210;6.976;2023-05-14T13:34:57;5.77;;;2.33;;
36383;SDS011;22418;51.210;6.976;2023-05-14T13:37:27;4.57;;;2.40;;
36383;SDS011;22418;51.210;6.976;2023-05-14T13:39:58;3.33;;;2.37;;
36383;SDS011;22418;51.210;6.976;2023-05-14T13:42:29;4.10;;;2.63;;
36383;SDS011;22418;51.210;6.976;2023-05-14T13:44:59;7.22;;;2.60;;
36383;SDS011;22418;51.210;6.976;2023-05-14T13:47:30;3.70;;;2.40;;
36383;SDS011;22418;51.210;6.976;2023-05-14T13:50:01;5.20;;;2.35;;
36383;SDS011;22418;51.210;6.976;2023-05-14T13:52:32;4.60;;;2.33;;
36383;SDS011;22418;51.210;6.976;2023-05-14T13:55:03;5.23;;;2.60;;
36383;SDS011;22418;51.210;6.976;2023-05-14T13:57:34;5.63;;;2.55;;
36383;SDS011;22418;51.210;6.976;2023-05-14T14:00:04;4.90;;;2.70;;
36383;SDS011;22418;51.210;6.976;2023-05-14T14:02:35;7.43;;;2.50;;
36383;SDS011;22418;51.210;6.976;2023-05-14T14:05:06;4.30;;;2.90;;
36383;SDS011;22418;51.210;6.976;2023-05-14T14:07:37;9.07;;;2.60;;
36383;SDS011;22418;51.210;6.976;2023-05-14T14:10:09;10.48;;;2.75;;
36383;SDS011;22418;51.210;6.976;2023-05-14T14:12:40;6.33;;;2.40;;
36383;SDS011;22418;51.210;6.976;2023-05-14T14:15:10;9.10;;;2.27;;
36383;SDS011;22418;51.210;6.976;2023-05-14T14:17:41;8.93;;;2.70;;
36383;SDS011;22418;51.210;6.976;2023-05-14T14:20:11;3.28;;;2.50;;
36383;SDS011;22418;51.210;6.976;2023-05-14T14:22:42;3.73;;;2.20;;
36383;SDS011;22418;51.210;6.976;2023-05-14T14:25:13;5.68;;;2.20;;
36383;SDS011;22418;51.210;6.976;2023-05-14T14:27:44;5.97;;;2.50;;
36383;SDS011;22418;51.210;6.976;2023-05-14T14:30:15;4.30;;;2.20;;
36383;SDS011;22418;51.210;6.976;2023-05-14T14:32:46;5.05;;;2.25;;
36383;SDS011;22418;51.210;6.976;2023-05-14T14:35:18;3.97;;;2.17;;
36383;SDS011;22418;51.210;6.976;2023-05-14T14:37:49;2.95;;;2.20;;
36383;SDS011;22418;51.210;6.976;2023-05-14T14:40:22;6.63;;;2.60;;
36383;SDS011;22418;51.210;6.976;2023-05-14T14:42:53;3.28;;;2.30;;
36383;SDS011;22418;51.210;6.976;2023-05-14T14:45:23;5.33;;;2.20;;
36383;SDS011;22418;51.210;6.976;2023-05-14T14:48:20;4.63;;;2.10;;
36383;SDS011;22418;51.210;6.976;2023-05-14T14:50:53;4.50;;;2.33;;
36383;SDS011;22418;51.210;6.976;2023-05-14T14:55:54;6.73;;;2.27;;
36383;SDS011;22418;51.210;6.976;2023-05-14T15:00:56;4.40;;;1.93;;
36383;SDS011;22418;51.210;6.976;2023-05-14T15:03:27;5.65;;;2.30;;
36383;SDS011;22418;51.210;6.976;2023-05-14T15:05:58;5.53;;;2.37;;
36383;SDS011;22418;51.210;6.976;2023-05-14T15:08:29;4.65;;;2.08;;
36383;SDS011;22418;51.210;6.976;2023-05-14T15:11:00;6.30;;;2.67;;
36383;SDS011;22418;51.210;6.976;2023-05-14T15:13:30;3.33;;;2.20;;
36383;SDS011;22418;51.210;6.976;2023-05-14T15:16:01;5.37;;;2.03;;
36383;SDS011;22418;51.210;6.976;2023-05-14T15:18:31;6.33;;;2.30;;
36383;SDS011;22418;51.210;6.976;2023-05-14T15:21:02;3.00;;;2.13;;
36383;SDS011;22418;51.210;6.976;2023-05-14T15:23:32;6.03;;;2.07;;
36383;SDS011;22418;51.210;6.976;2023-05-14T15:26:03;5.33;;;2.20;;
36383;SDS011;22418;51.210;6.976;2023-05-14T15:28:34;5.13;;;2.07;;
36383;SDS011;22418;51.210;6.976;2023-05-14T15:31:04;2.53;;;1.77;;
36383;SDS011;22418;51.210;6.976;2023-05-14T15:33:35;3.43;;;2.50;;
36383;SDS011;22418;51.210;6.976;2023-05-14T15:36:06;7.13;;;2.10;;
36383;SDS011;22418;51.210;6.976;2023-05-14T15:38:37;8.60;;;2.22;;
36383;SDS011;22418;51.210;6.976;2023-05-14T15:41:07;4.37;;;2.10;;